Time;durP1;ratioP1;P1;durP2;ratioP2;P2;SDS_P1;SDS_P2;PMS_P1;PMS_P2;Temp;Humidity;BMP_temperature;BMP_pressure;BME280_temperature;BME280_humidity;BME280_pressure;Samples;Min_cycle;Max_cycle;Signal;HPM_P1;HPM_P2
2021/06/21 00:02:04;;;;;;;17.90;7.20;;;;;;;;;;5011097;28;20490;-63
2021/06/21 00:04:30;;;;;;;17.30;6.85;;;;;;;;;;5010801;28;20026;-63
2021/06/21 00:06:56;;;;;;;18.65;8.18;;;;;;;;;;5026533;28;20030;-63
2021/06/21 00:09:22;;;;;;;15.90;7.07;;;;;;;;;;5014636;28;20022;-63
2021/06/21 00:11:48;;;;;;;18.05;7.97;;;;;;;;;;5014801;28;20124;-63
2021/06/21 00:14:15;;;;;;;18.90;6.90;;;;;;;;;;5014687;28;20026;-62
2021/06/21 00:16:41;;;;;;;17.77;6.63;;;;;;;;;;5014908;28;20444;-63
2021/06/21 00:19:07;;;;;;;17.58;7.63;;;;;;;;;;5029761;28;20472;-63
2021/06/21 00:21:33;;;;;;;17.67;6.75;;;;;;;;;;5032846;23;20064;-61
2021/06/21 00:23:59;;;;;;;16.08;6.68;;;;;;;;;;5057148;28;20064;-58
2021/06/21 00:26:25;;;;;;;16.20;7.10;;;;;;;;;;5074623;28;20553;-62
2021/06/21 00:28:51;;;;;;;17.83;7.30;;;;;;;;;;5057340;28;20476;-59
2021/06/21 00:31:17;;;;;;;17.30;7.57;;;;;;;;;;5075254;28;20052;-60
2021/06/21 00:33:43;;;;;;;18.35;7.15;;;;;;;;;;5075313;28;20481;-57
2021/06/21 00:36:09;;;;;;;18.10;7.60;;;;;;;;;;5075380;28;20036;-61
2021/06/21 00:38:35;;;;;;;17.63;7.47;;;;;;;;;;5075068;28;20029;-59
2021/06/21 00:41:01;;;;;;;16.70;8.00;;;;;;;;;;5075100;28;20029;-60
2021/06/21 00:43:27;;;;;;;18.15;8.45;;;;;;;;;;5074919;28;20027;-60
2021/06/21 00:45:53;;;;;;;16.50;8.52;;;;;;;;;;5056640;28;20107;-62
2021/06/21 00:48:19;;;;;;;19.08;9.70;;;;;;;;;;5074834;28;20017;-60
2021/06/21 00:50:45;;;;;;;19.23;8.80;;;;;;;;;;5074703;28;20032;-59
2021/06/21 00:53:11;;;;;;;25.08;14.25;;;;;;;;;;5056677;28;20024;-57
2021/06/21 00:55:37;;;;;;;23.73;9.20;;;25.40;86.30;;;;;;5075742;28;20103;-56
2021/06/21 00:58:03;;;;;;;18.20;10.15;;;20.40;99.90;;;;;;5074890;28;20563;-60
2021/06/21 01:00:28;;;;;;;21.27;12.45;;;20.10;99.90;;;;;;5057089;28;20052;-61
2021/06/21 01:02:55;;;;;;;18.20;9.52;;;20.00;99.90;;;;;;5074621;28;20361;-59
2021/06/21 01:05:26;;;;;;;21.40;12.30;;;19.70;99.90;;;;;;5056469;28;20112;-57
2021/06/21 01:07:53;;;;;;;21.17;10.82;;;;;;;;;;5074835;28;20108;-60
2021/06/21 01:10:21;;;;;;;24.92;15.75;;;;;;;;;;5074286;28;20101;-62
2021/06/21 01:12:47;;;;;;;22.48;11.55;;;;;;;;;;5056190;28;20024;-61
2021/06/21 01:15:33;;;;;;;21.35;12.27;;;;;;;;;;5056118;28;20028;-61
2021/06/21 01:18:02;;;;;;;19.15;11.27;;;;;;;;;;5073640;28;20496;-61
2021/06/21 01:20:28;;;;;;;24.75;13.38;;;;;;;;;;5074061;28;20486;-60
2021/06/21 01:22:57;;;;;;;19.52;11.35;;;;;;;;;;5073814;28;20117;-60
2021/06/21 01:25:26;;;;;;;24.45;11.88;;;;;;;;;;5073861;28;20774;-60
2021/06/21 01:27:55;;;;;;;23.15;11.07;;;;;;;;;;5074223;28;20536;-61
2021/06/21 01:30:28;;;;;;;18.90;11.18;;;;;;;;;;5073932;28;20028;-60
2021/06/21 01:33:01;;;;;;;23.40;13.07;;;;;;;;;;5073882;28;20196;-61
2021/06/21 01:35:34;;;;;;;20.88;13.73;;;;;;;;;;5055720;28;20388;-60
2021/06/21 01:38:02;;;;;;;24.58;13.88;;;;;;;;;;5073946;28;20110;-58
2021/06/21 01:40:32;;;;;;;24.63;15.20;;;19.70;99.90;;;;;;5056302;28;20395;-58
2021/06/21 01:43:02;;;;;;;25.85;16.98;;;18.40;99.90;;;;;;5074227;28;20051;-56
2021/06/21 01:45:29;;;;;;;28.88;18.77;;;18.30;99.90;;;;;;5074464;28;20013;-59
2021/06/21 01:47:55;;;;;;;24.13;17.57;;;18.20;99.90;;;;;;5055883;28;20028;-58
2021/06/21 01:50:25;;;;;;;24.23;18.35;;;18.20;99.90;;;;;;5073610;28;20028;-59
2021/06/21 01:52:55;;;;;;;26.30;19.05;;;;;;;;;;5073425;28;20031;-59
2021/06/21 01:55:22;;;;;;;29.33;19.98;;;;;;;;;;5073270;28;20040;-60
2021/06/21 01:57:48;;;;;;;34.83;24.95;;;;;;;;;;5073648;28;20040;-58
2021/06/21 02:00:15;;;;;;;25.55;19.17;;;;;;;;;;5056113;28;20032;-60
2021/06/21 02:02:42;;;;;;;24.80;19.13;;;;;;;;;;5073851;28;20096;-60
2021/06/21 02:05:09;;;;;;;30.67;21.70;;;;;;;;;;5073488;28;20025;-60
2021/06/21 02:07:35;;;;;;;28.83;21.45;;;;;;;;;;5073236;28;20163;-60
2021/06/21 02:10:02;;;;;;;27.27;21.17;;;;;;;;;;5073048;28;20146;-61
2021/06/21 02:12:29;;;;;;;30.00;23.52;;;;;;;;;;5055051;28;20115;-61
2021/06/21 02:14:56;;;;;;;26.63;21.13;;;;;;;;;;5072783;28;20033;-61
2021/06/21 02:17:25;;;;;;;29.88;22.40;;;;;;;;;;5055110;28;20029;-61
2021/06/21 02:19:52;;;;;;;33.72;26.23;;;;;;;;;;5055024;28;20376;-61
2021/06/21 02:22:22;;;;;;;32.88;24.40;;;;;;;;;;5054801;28;20078;-61
2021/06/21 02:24:48;;;;;;;32.17;25.55;;;;;;;;;;5072601;28;20016;-61
2021/06/21 02:27:15;;;;;;;39.50;28.33;;;;;;;;;;5055141;28;20028;-60
2021/06/21 02:29:43;;;;;;;34.60;28.60;;;;;;;;;;5054577;28;20362;-61
2021/06/21 02:32:09;;;;;;;36.17;28.38;;;;;;;;;;5072495;28;20097;-60
2021/06/21 02:34:35;;;;;;;32.80;27.58;;;;;;;;;;5072527;28;20484;-61
2021/06/21 02:37:01;;;;;;;33.15;28.45;;;;;;;;;;5072496;28;20074;-61
2021/06/21 02:39:28;;;;;;;35.72;29.73;;;;;;;;;;5072491;28;20379;-61
2021/06/21 02:41:53;;;;;;;34.45;28.40;;;;;;;;;;5072452;28;20020;-61
2021/06/21 02:44:20;;;;;;;34.88;31.00;;;;;;;;;;5072337;28;20449;-61
2021/06/21 02:46:46;;;;;;;36.13;29.52;;;;;;;;;;5054415;28;20017;-60
2021/06/21 02:49:11;;;;;;;34.83;28.85;;;;;;;;;;5072440;28;20032;-60
2021/06/21 02:51:54;;;;;;;32.38;28.38;;;;;;;;;;5072169;28;20039;-60
2021/06/21 02:54:23;;;;;;;33.38;28.90;;;;;;;;;;5072263;28;20481;-60
2021/06/21 02:57:01;;;;;;;34.30;28.45;;;;;;;;;;5072223;28;20039;-60
2021/06/21 02:59:28;;;;;;;32.45;27.67;;;;;;;;;;5072743;28;20129;-60
2021/06/21 03:01:55;;;;;;;35.25;31.42;;;;;;;;;;5054312;28;20166;-60
2021/06/21 03:04:21;;;;;;;33.83;28.17;;;;;;;;;;5071978;28;20028;-60
2021/06/21 03:06:48;;;;;;;36.47;28.38;;;;;;;;;;5072013;28;20026;-60
2021/06/21 03:09:19;;;;;;;33.53;27.70;;;;;;;;;;5072263;28;20025;-61
2021/06/21 03:11:49;;;;;;;37.38;29.63;;;;;;;;;;5054146;28;20107;-61
2021/06/21 03:14:16;;;;;;;34.67;27.95;;;;;;;;;;5071940;28;20025;-64
2021/06/21 03:16:42;;;;;;;36.08;29.73;;;;;;;;;;5072030;28;20040;-61
2021/06/21 03:19:11;;;;;;;36.22;27.85;;;;;;;;;;5054063;28;20111;-61
2021/06/21 03:21:37;;;;;;;36.67;29.08;;;;;;;;;;5053725;28;20059;-62
2021/06/21 03:24:04;;;;;;;33.45;26.27;;;;;;;;;;5053548;28;20056;-62
2021/06/21 03:26:31;;;;;;;33.28;26.25;;;;;;;;;;5071765;28;20074;-61
2021/06/21 03:28:57;;;;;;;33.70;27.25;;;;;;;;;;5071761;28;20032;-61
2021/06/21 03:31:24;;;;;;;32.60;28.35;;;;;;;;;;5053731;28;20025;-61
2021/06/21 03:33:50;;;;;;;32.72;27.35;;;;;;;;;;5071621;28;20075;-61
2021/06/21 03:36:16;;;;;;;33.58;29.58;;;;;;;;;;5071320;28;20036;-61
2021/06/21 03:38:42;;;;;;;30.23;24.02;;;;;;;;;;5071587;28;20479;-61
2021/06/21 03:41:09;;;;;;;29.83;24.80;;;;;;;;;;5055056;28;20103;-61
2021/06/21 03:43:35;;;;;;;27.52;22.92;;;;;;;;;;5060239;28;20556;-61
2021/06/21 03:46:04;;;;;;;28.75;24.55;;;;;;;;;;5078034;28;20486;-61
2021/06/21 03:48:30;;;;;;;28.70;24.17;;;;;;;;;;5078359;28;20031;-61
2021/06/21 03:50:57;;;;;;;26.48;21.77;;;;;;;;;;5078245;28;20102;-61
2021/06/21 03:53:23;;;;;;;26.05;20.67;;;;;;;;;;5078108;28;20438;-61
2021/06/21 03:55:49;;;;;;;29.40;22.33;;;;;;;;;;5078020;28;20388;-61
2021/06/21 03:58:16;;;;;;;25.67;20.52;;;;;;;;;;5078073;28;20490;-61
2021/06/21 04:00:42;;;;;;;24.33;20.13;;;;;;;;;;5078075;28;20024;-61
2021/06/21 04:03:09;;;;;;;27.60;20.83;;;;;;;;;;5078063;28;20024;-60
2021/06/21 04:05:37;;;;;;;24.42;19.50;;;;;;;;;;5059715;28;20024;-59
2021/06/21 04:08:04;;;;;;;25.58;19.20;;;;;;;;;;5078214;28;20075;-60
2021/06/21 04:10:30;;;;;;;25.05;19.90;;;;;;;;;;5078031;28;20032;-61
2021/06/21 04:12:56;;;;;;;27.25;19.17;;;;;;;;;;5059803;28;20074;-61
2021/06/21 04:15:28;;;;;;;23.58;18.85;;;;;;;;;;5077539;28;20070;-61
2021/06/21 04:17:54;;;;;;;25.42;20.17;;;;;;;;;;5078258;28;20291;-58
2021/06/21 04:20:20;;;;;;;24.88;19.98;;;;;;;;;;5077724;28;20476;-60
2021/06/21 04:22:46;;;;;;;23.48;18.38;;;;;;;;;;5077760;28;20033;-61
2021/06/21 04:25:14;;;;;;;26.50;19.55;;;;;;;;;;5059704;28;20024;-61
2021/06/21 04:27:40;;;;;;;28.30;20.77;;;;;;;;;;5077870;28;20081;-61
2021/06/21 04:30:07;;;;;;;24.70;18.40;;;;;;;;;;5077825;28;20036;-62
2021/06/21 04:32:33;;;;;;;23.80;17.48;;;;;;;;;;5059770;28;20024;-61
2021/06/21 04:34:59;;;;;;;25.48;18.88;;;;;;;;;;5059845;28;20412;-58
2021/06/21 04:37:25;;;;;;;23.98;18.15;;;;;;;;;;5077530;28;20086;-61
2021/06/21 04:39:51;;;;;;;23.02;17.15;;;;;;;;;;5077562;28;20050;-60
2021/06/21 04:42:17;;;;;;;21.60;16.35;;;;;;;;;;5059597;28;20476;-61
2021/06/21 04:44:44;;;;;;;21.70;16.15;;;;;;;;;;5077676;28;20393;-60
2021/06/21 04:47:10;;;;;;;22.17;16.63;;;;;;;;;;5077540;28;20027;-61
2021/06/21 04:49:37;;;;;;;23.00;16.30;;;;;;;;;;5077315;28;20028;-59
2021/06/21 04:52:05;;;;;;;21.33;15.63;;;;;;;;;;5059765;28;20031;-60
2021/06/21 04:54:31;;;;;;;27.45;20.45;;;;;;;;;;5073347;28;20101;-60
2021/06/21 04:56:58;;;;;;;25.00;18.10;;;;;;;;;;5074228;28;20477;-60
2021/06/21 04:59:23;;;;;;;21.92;15.27;;;;;;;;;;5056371;28;20032;-61
2021/06/21 05:01:49;;;;;;;23.48;18.27;;;;;;;;;;5056102;28;20120;-60
2021/06/21 05:04:15;;;;;;;20.17;15.60;;;;;;;;;;5074095;28;20021;-60
2021/06/21 05:06:41;;;;;;;21.65;16.15;;;;;;;;;;5073873;28;20480;-60
2021/06/21 05:09:09;;;;;;;21.33;16.38;;;;;;;;;;5074159;28;20025;-59
2021/06/21 05:11:35;;;;;;;23.13;17.40;;;;;;;;;;5073931;28;20028;-63
2021/06/21 05:14:01;;;;;;;20.98;15.02;;;;;;;;;;5056303;28;20477;-60
2021/06/21 05:16:27;;;;;;;20.98;15.68;;;;;;;;;;5073808;28;20025;-59
2021/06/21 05:18:53;;;;;;;20.67;15.50;;;;;;;;;;5073603;28;20037;-60
2021/06/21 05:21:20;;;;;;;19.70;14.45;;;;;;;;;;5073459;28;20031;-60
2021/06/21 05:23:46;;;;;;;19.65;14.73;;;;;;;;;;5073262;28;20110;-59
2021/06/21 05:26:13;;;;;;;19.33;14.07;;;;;;;;;;5055452;28;20020;-58
2021/06/21 05:28:39;;;;;;;21.35;14.52;;;;;;;;;;5073606;28;20020;-60
2021/06/21 05:31:05;;;;;;;20.77;14.50;;;;;;;;;;5055172;28;20115;-60
2021/06/21 05:33:31;;;;;;;19.25;13.68;;;;;;;;;;5073224;28;20028;-60
2021/06/21 05:35:57;;;;;;;20.33;12.45;;;;;;;;;;5055328;28;20443;-60
2021/06/21 05:38:23;;;;;;;17.90;12.55;;;;;;;;;;5055213;28;20288;-60
2021/06/21 05:40:49;;;;;;;18.27;12.13;;;;;;;;;;5072915;28;20021;-58
2021/06/21 05:43:15;;;;;;;20.48;13.23;;;;;;;;;;5073358;28;20361;-60
2021/06/21 05:45:41;;;;;;;17.00;11.63;;;;;;;;;;5072764;28;20122;-59
2021/06/21 05:48:07;;;;;;;18.40;12.85;;;;;;;;;;5073211;28;20059;-58
2021/06/21 05:50:33;;;;;;;18.00;13.13;;;;;;;;;;5051865;28;20393;-60
2021/06/21 05:52:59;;;;;;;17.13;12.73;;;;;;;;;;5072948;28;20099;-59
2021/06/21 05:55:25;;;;;;;18.77;12.85;;;;;;;;;;5072391;28;20059;-60
2021/06/21 05:57:53;;;;;;;19.63;13.63;;;;;;;;;;5069530;28;20021;-60
2021/06/21 06:00:19;;;;;;;18.10;13.25;;;;;;;;;;5052685;28;20033;-60
2021/06/21 06:02:45;;;;;;;20.33;14.00;;;;;;;;;;5035062;28;20032;-59
2021/06/21 06:05:12;;;;;;;18.83;13.38;;;;;;;;;;5051209;28;20033;-62
2021/06/21 06:07:38;;;;;;;18.58;13.30;;;;;;;;;;5062732;28;20097;-59
2021/06/21 06:10:04;;;;;;;18.70;13.65;;;;;;;;;;5052547;28;20033;-60
2021/06/21 06:12:30;;;;;;;18.85;13.70;;;;;;;;;;5052218;28;20029;-60
2021/06/21 06:14:56;;;;;;;19.50;14.52;;;;;;;;;;5051942;28;20159;-59
2021/06/21 06:17:22;;;;;;;18.70;14.50;;;;;;;;;;5052034;28;20481;-61
2021/06/21 06:19:48;;;;;;;19.48;15.00;;;;;;;;;;5052247;28;20029;-61
2021/06/21 06:22:14;;;;;;;19.58;15.10;;;;;;;;;;5052483;28;20377;-59
2021/06/21 06:24:40;;;;;;;18.27;13.60;;;;;;;;;;5064395;28;20025;-60
2021/06/21 06:27:06;;;;;;;18.25;13.70;;;;;;;;;;5072447;28;20051;-61
2021/06/21 06:29:33;;;;;;;20.00;14.95;;;;;;;;;;5072312;28;20027;-58
2021/06/21 06:32:00;;;;;;;19.45;14.23;;;;;;;;;;5072090;28;20043;-59
2021/06/21 06:34:26;;;;;;;19.10;14.70;;;;;;;;;;5071836;28;20047;-59
2021/06/21 06:36:52;;;;;;;18.45;13.52;;;;;;;;;;5054518;28;20043;-59
2021/06/21 06:39:18;;;;;;;18.95;14.02;;;;;;;;;;5071931;28;20024;-60
2021/06/21 06:41:44;;;;;;;16.98;11.95;;;;;;;;;;5072317;28;20100;-60
2021/06/21 06:44:10;;;;;;;43.17;19.05;;;;;;;;;;5071636;28;20082;-57
2021/06/21 06:46:36;;;;;;;19.08;12.38;;;;;;;;;;5053450;28;20031;-60
2021/06/21 06:49:03;;;;;;;17.98;12.18;;;;;;;;;;5071691;28;20103;-57
2021/06/21 06:51:34;;;;;;;16.65;10.85;;;;;;;;;;5071598;28;20095;-60
2021/06/21 06:54:10;;;;;;;17.80;11.05;;;;;;;;;;5071659;28;20063;-59
2021/06/21 06:59:21;;;;;;;16.95;11.23;;;;;;;;;;5072232;28;20031;-59
2021/06/21 07:01:47;;;;;;;16.98;11.90;;;;;;;;;;5071658;28;20442;-63
2021/06/21 07:04:14;;;;;;;16.73;11.93;;;;;;;;;;5071236;28;20024;-60
2021/06/21 07:06:40;;;;;;;16.73;11.13;;;;;;;;;;5071875;28;20027;-59
2021/06/21 07:09:06;;;;;;;16.88;11.20;;;;;;;;;;5071718;28;20028;-57
2021/06/21 07:11:36;;;;;;;16.35;10.65;;;;;;;;;;5053935;28;20065;-60
2021/06/21 07:14:02;;;;;;;16.38;11.00;;;;;;;;;;5071609;28;20054;-60
2021/06/21 07:16:28;;;;;;;17.23;10.10;;;;;;;;;;5053128;28;20106;-59
2021/06/21 07:18:54;;;;;;;16.35;10.60;;;;;;;;;;5071470;28;20472;-59
2021/06/21 07:21:20;;;;;;;15.98;10.20;;;;;;;;;;5071459;28;20020;-59
2021/06/21 07:23:47;;;;;;;15.77;10.68;;;;;;;;;;5053269;28;20401;-60
2021/06/21 07:26:13;;;;;;;16.17;10.70;;;;;;;;;;5053572;28;20111;-58
2021/06/21 07:28:39;;;;;;;15.65;10.10;;;;;;;;;;5071492;28;20108;-60
2021/06/21 07:31:05;;;;;;;16.10;10.85;;;;;;;;;;5071497;28;20111;-56
2021/06/21 07:33:31;;;;;;;16.65;10.20;;;;;;;;;;5071408;28;20024;-60
2021/06/21 07:35:58;;;;;;;17.17;10.43;;;;;;;;;;5053575;28;20031;-59
2021/06/21 07:38:24;;;;;;;15.40;9.95;;;;;;;;;;5071677;28;20024;-60
2021/06/21 07:40:50;;;;;;;16.98;10.30;;;;;;;;;;5053308;28;20396;-60
2021/06/21 07:43:16;;;;;;;15.95;10.07;;;;;;;;;;5071175;28;20047;-60
2021/06/21 07:45:43;;;;;;;15.88;10.57;;;;;;;;;;5071426;28;20017;-60
2021/06/21 07:48:09;;;;;;;17.65;10.85;;;;;;;;;;5071221;28;20024;-57
2021/06/21 07:50:35;;;;;;;15.88;10.20;;;;;;;;;;5053283;28;20400;-57
2021/06/21 07:53:03;;;;;;;15.60;10.10;;;;;;;;;;5070779;28;20423;-57
2021/06/21 07:55:29;;;;;;;15.50;9.65;;;;;;;;;;5070998;28;20024;-55
2021/06/21 07:57:55;;;;;;;14.93;9.50;;;;;;;;;;5053321;28;20039;-59
2021/06/21 08:00:24;;;;;;;15.98;9.65;;;;;;;;;;5071372;28;20047;-59
2021/06/21 08:02:50;;;;;;;17.23;9.70;;;;;;;;;;5071208;28;20021;-58
2021/06/21 08:05:16;;;;;;;16.23;9.43;;;;;;;;;;5070996;28;20028;-59
2021/06/21 08:07:42;;;;;;;16.67;9.52;;;;;;;;;;5053273;28;20016;-58
2021/06/21 08:10:09;;;;;;;15.80;9.30;;;;;;;;;;5071087;28;20043;-59
2021/06/21 08:12:35;;;;;;;15.40;9.07;;;;;;;;;;5052960;28;20470;-59
2021/06/21 08:15:01;;;;;;;16.55;9.18;;;;;;;;;;5070609;28;20065;-59
2021/06/21 08:17:27;;;;;;;15.10;9.40;;;;;;;;;;5071068;28;20024;-59
2021/06/21 08:19:53;;;;;;;17.15;9.68;;;;;;;;;;5071672;28;20052;-58
2021/06/21 08:22:22;;;;;;;16.75;9.48;;;;;;;;;;5071238;28;20111;-57
2021/06/21 08:24:49;;;;;;;15.30;9.35;;;;;;;;;;5071043;28;20028;-58
2021/06/21 08:27:16;;;;;;;15.27;9.68;;;;;;;;;;5071231;28;20108;-58
2021/06/21 08:29:42;;;;;;;14.85;9.70;;;;;;;;;;5074552;28;20036;-57
2021/06/21 08:32:08;;;;;;;16.85;10.25;;;;;;;;;;5056871;28;20028;-57
2021/06/21 08:34:34;;;;;;;16.88;9.35;;;;;;;;;;5074652;28;20024;-59
2021/06/21 08:37:00;;;;;;;14.88;9.32;;;;;;;;;;5074722;28;20365;-60
2021/06/21 08:39:26;;;;;;;14.65;9.07;;;;;;;;;;5075010;28;20032;-58
2021/06/21 08:41:54;;;;;;;15.43;8.82;;;;;;;;;;5074331;28;20051;-56
2021/06/21 08:44:20;;;;;;;14.43;8.50;;;;;;;;;;5056250;28;20021;-59
2021/06/21 08:46:49;;;;;;;14.75;8.57;;;;;;;;;;5056377;28;20424;-56
2021/06/21 08:49:15;;;;;;;14.82;8.43;;;;;;;;;;5073922;28;20032;-59
2021/06/21 08:51:42;;;;;;;14.55;8.55;;;;;;;;;;5074103;28;20103;-60
2021/06/21 08:54:13;;;;;;;14.88;8.88;;;;;;;;;;5074774;28;20052;-66
2021/06/21 08:56:39;;;;;;;14.20;8.20;;;;;;;;;;5056671;28;20035;-58
2021/06/21 08:59:06;;;;;;;15.60;8.40;;;;;;;;;;5073986;28;20426;-59
2021/06/21 09:01:32;;;;;;;16.10;8.77;;;;;;;;;;5074124;28;20021;-59
2021/06/21 09:03:58;;;;;;;15.20;8.50;;;;;;;;;;5055909;28;20040;-59
2021/06/21 09:06:25;;;;;;;16.35;8.55;;;;;;;;;;5073662;28;20056;-58
2021/06/21 09:08:52;;;;;;;14.23;7.97;;;;;;;;;;5073769;28;20024;-58
2021/06/21 09:11:18;;;;;;;14.73;7.63;;;;;;;;;;5056204;28;20059;-61
2021/06/21 09:13:44;;;;;;;17.67;8.18;;;;;;;;;;5055501;28;20025;-59
2021/06/21 09:16:10;;;;;;;14.82;8.07;;;;;;;;;;5073618;28;20028;-62
2021/06/21 09:18:39;;;;;;;15.07;8.65;;;;;;;;;;5055823;28;20071;-59
2021/06/21 09:21:17;;;;;;;14.13;8.18;;;;;;;;;;5073851;28;20056;-58
2021/06/21 09:23:43;;;;;;;14.48;7.65;;;;;;;;;;5073174;28;20036;-59
2021/06/21 09:26:16;;;;;;;16.63;7.72;;;;;;;;;;5073535;28;20472;-57
2021/06/21 09:28:42;;;;;;;15.30;8.27;;;;;;;;;;5073561;28;20017;-62
2021/06/21 09:31:08;;;;;;;14.98;8.20;;;;;;;;;;5073334;28;20034;-58
2021/06/21 09:33:34;;;;;;;16.50;8.10;;;;;;;;;;5073592;28;20032;-57
2021/06/21 09:36:00;;;;;;;15.48;8.25;;;;;;;;;;5072887;28;20031;-58
2021/06/21 09:38:26;;;;;;;16.83;8.45;;;;;;;;;;5055534;28;20032;-59
2021/06/21 09:40:54;;;;;;;15.48;8.68;;;;;;;;;;5073068;28;20055;-60
2021/06/21 09:43:20;;;;;;;19.55;9.15;;;;;;;;;;5054966;28;20025;-60
2021/06/21 09:46:05;;;;;;;16.30;8.10;;;;;;;;;;5072847;28;20052;-59
2021/06/21 09:48:35;;;;;;;14.68;8.68;;;;;;;;;;5073068;28;20430;-60
2021/06/21 09:51:20;;;;;;;15.40;8.32;;;;;;;;;;5072810;28;20051;-58
2021/06/21 09:53:53;;;;;;;15.32;8.35;;;;;;;;;;5054994;28;20024;-57
2021/06/21 09:56:42;;;;;;;14.98;8.82;;;;;;;;;;5072771;28;20024;-59
2021/06/21 09:59:28;;;;;;;16.38;9.00;;;;;;;;;;5060194;28;20094;-58
2021/06/21 10:02:00;;;;;;;18.20;10.40;;;;;;;;;;5072754;28;20031;-55
2021/06/21 10:04:26;;;;;;;16.83;10.63;;;;;;;;;;5073090;28;20020;-57
2021/06/21 10:06:53;;;;;;;18.17;10.80;;;;;;;;;;5072987;28;20017;-57
2021/06/21 10:09:19;;;;;;;16.70;10.50;;;;;;;;;;5072608;28;20046;-57
2021/06/21 10:11:46;;;;;;;17.17;11.20;;;;;;;;;;5072290;28;20037;-56
2021/06/21 10:14:19;;;;;;;18.63;11.48;;;;;;;;;;5072314;28;20024;-58
2021/06/21 10:16:46;;;;;;;22.92;11.32;;;;;;;;;;5072555;28;20492;-54
2021/06/21 10:19:12;;;;;;;17.73;10.65;;;;;;;;;;5072437;28;20032;-57
2021/06/21 10:21:40;;;;;;;18.13;10.13;;;;;;;;;;5072382;28;20108;-58
2021/06/21 10:24:06;;;;;;;17.30;9.48;;;;;;;;;;5072476;28;20016;-57
2021/06/21 10:26:33;;;;;;;17.30;8.27;;;;;;;;;;5072160;28;20024;-59
2021/06/21 10:28:59;;;;;;;16.15;8.02;;;;;;;;;;5072181;28;20017;-58
2021/06/21 10:31:26;;;;;;;15.18;8.15;;;;;;;;;;5072257;28;20038;-56
2021/06/21 10:33:56;;;;;;;14.90;8.10;;;;;;;;;;5072112;28;20457;-56
2021/06/21 10:36:22;;;;;;;15.93;7.72;;;;;;;;;;5054541;28;20096;-56
2021/06/21 10:39:06;;;;;;;14.50;7.35;;;;;;;;;;5072446;28;20025;-57
2021/06/21 10:41:32;;;;;;;16.55;7.50;;;;;;;;;;5072281;28;20025;-58
2021/06/21 10:43:58;;;;;;;14.70;7.10;;;;;;;;;;5072114;28;20055;-58
2021/06/21 10:46:26;;;;;;;14.90;6.95;;;;;;;;;;5071843;28;20032;-59
2021/06/21 10:48:58;;;;;;;16.25;7.00;;;;;;;;;;5071678;28;20025;-58
2021/06/21 10:51:40;;;;;;;16.50;7.13;;;;;;;;;;5071399;28;20029;-59
2021/06/21 10:54:07;;;;;;;14.15;6.43;;;;;;;;;;5053999;28;20463;-55
2021/06/21 10:56:45;;;;;;;13.18;6.28;;;;;;;;;;5053085;28;20081;-56
2021/06/21 10:59:15;;;;;;;17.27;7.43;;;;;;;;;;5071626;28;20024;-56
2021/06/21 11:01:59;;;;;;;14.52;6.50;;;;;;;;;;5070864;28;20077;-58
2021/06/21 11:04:34;;;;;;;14.75;7.07;;;;;;;;;;5071169;28;20092;-58
2021/06/21 11:07:26;;;;;;;14.77;7.20;;;;;;;;;;5071162;28;20020;-58
2021/06/21 11:09:55;;;;;;;14.57;7.28;;;;;;;;;;5049317;28;20033;-58
2021/06/21 11:12:21;;;;;;;;;;;;;;;;;;5071850;28;20032;-58
2021/06/21 11:15:08;;;;;;;14.52;7.03;;;;;;;;;;5070513;28;19911;-56
2021/06/21 11:17:44;;;;;;;14.35;6.70;;;;;;;;;;5071697;28;20040;-57
2021/06/21 11:20:28;;;;;;;14.90;6.95;;;;;;;;;;5053271;28;20515;-59
2021/06/21 11:22:59;;;;;;;16.65;7.32;;;;;;;;;;5053389;28;20075;-56
2021/06/21 11:25:38;;;;;;;15.85;7.18;;;;;;;;;;5071237;28;20023;-58
2021/06/21 11:28:04;;;;;;;15.70;7.28;;;;;;;;;;5071664;28;20028;-57
2021/06/21 11:30:34;;;;;;;14.65;7.10;;;;;;;;;;5071684;28;20111;-58
2021/06/21 11:33:02;;;;;;;16.10;7.93;;;;;;;;;;5071480;28;20081;-59
2021/06/21 11:35:47;;;;;;;16.90;8.00;;;;;;;;;;5071236;28;20051;-57
2021/06/21 11:38:29;;;;;;;15.02;7.68;;;;;;;;;;5071236;28;20114;-59
2021/06/21 11:41:14;;;;;;;16.23;8.15;;;;;;;;;;5053471;28;20028;-56
2021/06/21 11:43:45;;;;;;;16.80;8.73;;;;;;;;;;5070989;28;20021;-59
2021/06/21 11:46:11;;;;;;;16.08;8.63;;;;;;;;;;5070909;28;20031;-59
2021/06/21 11:48:39;;;;;;;16.67;8.15;;;;;;;;;;5071221;28;20017;-58
2021/06/21 11:51:13;;;;;;;17.45;9.52;;;;;;;;;;5071052;28;20090;-58
2021/06/21 11:53:43;;;;;;;17.50;9.35;;;;;;;;;;5086951;28;20035;-57
2021/06/21 11:56:09;;;;;;;16.65;8.73;;;;;;;;;;5072839;28;20032;-55
2021/06/21 11:58:35;;;;;;;15.98;8.40;;;;;;;;;;5091160;28;20028;-59
2021/06/21 12:01:14;;;;;;;22.73;9.15;;;;;;;;;;5091199;28;20028;-56
2021/06/21 12:03:43;;;;;;;16.67;8.63;;;;;;;;;;5075979;28;20646;-57
2021/06/21 12:06:16;;;;;;;16.48;7.88;;;;;;;;;;5094908;28;20115;-56
2021/06/21 12:08:42;;;;;;;16.85;8.23;;;;;;;;;;5094921;28;20403;-56
2021/06/21 12:11:28;;;;;;;17.02;7.72;;;;;;;;;;5095893;28;20158;-59
2021/06/21 12:14:07;;;;;;;15.80;8.25;;;;;;;;;;5095398;28;20616;-57
2021/06/21 12:16:33;;;;;;;;;;;;;;;;;;5094913;28;20047;-59
2021/06/21 12:18:59;;;;;;;19.13;7.85;;;;;;;;;;5075960;28;19904;-55
2021/06/21 12:21:33;;;;;;;17.20;7.45;;;;;;;;;;5076628;28;20024;-53
2021/06/21 12:24:18;;;;;;;17.92;8.55;;;;;;;;;;5095974;28;20035;-52
2021/06/21 12:26:45;;;;;;;17.02;8.23;;;;;;;;;;5076473;28;20023;-52
2021/06/21 12:29:25;;;;;;;20.23;8.25;;;;;;;;;;5094421;28;20107;-57
2021/06/21 12:31:52;;;;;;;17.30;8.23;;;;;;;;;;5094499;28;20433;-56
2021/06/21 12:34:18;;;;;;;16.73;8.80;;;;;;;;;;5094875;28;20027;-54
2021/06/21 12:36:44;;;;;;;16.92;8.95;;;;;;;;;;5094736;28;20447;-53
2021/06/21 12:39:10;;;;;;;16.60;8.07;;;;;;;;;;5076268;28;20035;-52
2021/06/21 12:41:38;;;;;;;16.75;8.50;;;;;;;;;;5094405;28;20016;-52
2021/06/21 12:44:08;;;;;;;17.13;8.83;;;;;;;;;;5095059;28;20021;-54
2021/06/21 12:46:35;;;;;;;16.67;7.97;;;;;;;;;;5095015;28;20273;-50
2021/06/21 12:49:04;;;;;;;18.02;8.93;;;;;;;;;;5095397;28;20093;-51
2021/06/21 12:51:31;;;;;;;16.80;8.05;;;;;;;;;;5068852;28;20137;-56
2021/06/21 12:53:58;;;;;;;17.83;7.43;;;;;;;;;;5074247;28;20017;-52
2021/06/21 12:56:29;;;;;;;15.60;6.97;;;;;;;;;;5065160;28;20021;-54
2021/06/21 12:58:55;;;;;;;15.98;7.38;;;;;;;;;;5064299;28;20029;-53
2021/06/21 13:01:26;;;;;;;15.63;7.10;;;;;;;;;;5062350;28;20047;-54
2021/06/21 13:03:53;;;;;;;15.25;6.72;;;;;;;;;;5068434;28;20021;-55
2021/06/21 13:06:36;;;;;;;15.63;7.75;;;;;;;;;;5046064;28;20045;-54
2021/06/21 13:09:06;;;;;;;15.40;7.32;;;;;;;;;;5064344;28;20017;-54
2021/06/21 13:11:47;;;;;;;12.63;5.85;;;;;;;;;;5064157;28;20041;-50
2021/06/21 13:14:13;;;;;;;13.57;6.80;;;;;;;;;;5070616;28;20016;-55
2021/06/21 13:16:39;;;;;;;12.98;6.20;;;;;;;;;;5070872;28;20412;-56
2021/06/21 13:19:12;;;;;;;14.68;7.00;;;;;;;;;;5054263;28;20123;-56
2021/06/21 13:21:40;;;;;;;13.75;7.18;;;;;;;;;;5071790;28;20017;-52
2021/06/21 13:24:07;;;;;;;13.73;7.15;;;;;;;;;;5074258;28;20028;-52
2021/06/21 13:26:36;;;;;;;14.50;7.53;;;;;;;;;;5073875;28;20021;-52
2021/06/21 13:29:21;;;;;;;13.88;7.57;;;;;;;;;;5073942;28;20086;-52
2021/06/21 13:31:48;;;;;;;13.93;8.13;;;;;;;;;;5049833;28;20078;-50
2021/06/21 13:34:34;;;;;;;13.75;7.25;;;;;;;;;;5056257;28;20025;-52
2021/06/21 13:37:00;;;;;;;13.25;7.28;;;;;;;;;;5056103;28;20040;-52
2021/06/21 13:39:26;;;;;;;13.90;7.13;;;;;;;;;;5073595;28;20032;-53
2021/06/21 13:41:59;;;;;;;13.55;7.05;;;;;;;;;;5073450;28;20021;-55
2021/06/21 13:44:25;;;;;;;14.90;7.13;;;;;;;;;;5073146;28;20565;-51
2021/06/21 13:46:51;;;;;;;14.57;7.13;;;;;;;;;;5073466;28;20073;-55
2021/06/21 13:49:17;;;;;;;15.40;7.40;;;;;;;;;;5073343;28;20021;-57
2021/06/21 13:51:53;;;;;;;13.20;6.90;;;;;;;;;;5073540;28;20098;-54
2021/06/21 13:54:19;;;;;;;13.88;7.15;;;;;;;;;;5072858;28;20086;-53
2021/06/21 13:56:45;;;;;;;13.38;7.15;;;;;;;;;;5071305;28;20074;-51
2021/06/21 13:59:12;;;;;;;12.45;6.78;;;;;;;;;;5067458;28;20036;-50
2021/06/21 14:01:49;;;;;;;12.60;7.10;;;;;;;;;;5091287;28;20024;-47
2021/06/21 14:04:15;;;;;;;13.35;7.30;;;;;;;;;;5092691;28;20076;-51
2021/06/21 14:06:41;;;;;;;13.05;7.07;;;;;;;;;;5093250;28;20510;-52
2021/06/21 14:09:08;;;;;;;14.75;7.60;;;;;;;;;;5092831;28;20020;-56
2021/06/21 14:11:34;;;;;;;13.87;7.60;;;;;;;;;;4737370;28;10000454;-55
2021/06/21 14:14:00;;;;;;;14.00;7.90;;;;;;;;;;5061962;28;20021;-51
2021/06/21 14:16:27;;;;;;;14.38;8.20;;;;;;;;;;5072640;28;20149;-50
2021/06/21 14:18:55;;;;;;;14.77;7.93;;;;;;;;;;5064589;28;20051;-49
2021/06/21 14:21:21;;;;;;;15.18;7.60;;;;;;;;;;5067121;28;20135;-52
2021/06/21 14:23:48;;;;;;;13.68;7.18;;;;;;;;;;5067669;28;20044;-54
2021/06/21 14:26:17;;;;;;;14.48;7.40;;;;;;;;;;5060078;28;20024;-54
2021/06/21 14:28:43;;;;;;;13.18;6.95;;;;;;;;;;5057704;28;20029;-48
2021/06/21 14:31:10;;;;;;;12.82;6.72;;;;;;;;;;5056211;28;20460;-50